Pagrindinis puslapis
METAR-TAF:

METAR-TAF

Oro uostai :

Vadsė, Norvegija

platuma: 70-04N, ilguma: 029-51E, Aukštis: 3 m

Dabartinis oras

Ataskaita buvo paskelbta 21 minutes, ne 04:50 UTC
Vėjas 14 kt iš Šiaurės Rytų
Temperatūra 8°C
Drėgmė 93%
Slėgis 1012 hPa
Matomumas 10 km arba daugiau
Mažai debesys ne aukštis 500 ft
Su prošvaistėmis ne aukštis 7000 ft
Rūkas kaimynystėje, lietus

METAR: ENVD 250450Z 05014KT 9999 VCFG -SHRA FEW005 BKN070 08/07 Q1012

Laikas: 07:11 (05:11 UTC)

Prognozė

Ataskaita buvo paskelbta 3 valandos ir 11 minutes, ne 02:00 UTC
Prognozė galioja nuo 25 metu 03 UTC su 25 metu 12 UTC
Vėjas 12 kt iš Rytų/Šiaurės Rytų
Matomumas 10 km arba daugiau
Mažai debesys ne aukštis 500 ft
Su prošvaistėmis ne aukštis 4000 ft
lietus
Laikinai
nuo 25 metu 03 UTC su 25 metu 10 UTC
Matomumas: 2000 m
Su prošvaistėmis ne aukštis 400 ft
lietus, rūkana
Tapsmas
nuo 25 metu 08 UTC su 25 metu 10 UTC
Vėjas 5 kt nuo kintamojo kryptimis

TAF: ENVD 250200Z 2503/2512 07012KT 9999 -SHRA FEW005 BKN040 TEMPO 2503/2510 2000 SHRA BR BKN004 BECMG 2508/2510 VRB05KT

Orai ataskaitas ir orų prognozės (METAR, TAF).

turimą stotys yra geltonos ir raudonos taškus žemėlapyje.

Perkelti pele per norėdami pamatyti stoties vardą.

Tada spustelėkite, norėdami matyti oro stebėjimo ir prognozės.

Norėdami pakeisti žemėlapį: spustelėkite ant žalios mygtukų su juodo kryžiaus žemyn,; žalią mygtuką su brūkšneliu, jei norite nutolinti; arba žalių rodyklių gretimoms žemėlapius.


METAR-TAF: